sensor_id;sensor_type;location;lat;lon;timestamp;pressure;altitude;pressure_sealevel;temperature;humidity
11808;BME280;5961;42.640;23.380;2023-07-31T00:01:31;93762.91;;;23.06;79.11
11808;BME280;5961;42.640;23.380;2023-07-31T00:03:58;93753.47;;;23.14;78.75
11808;BME280;5961;42.640;23.380;2023-07-31T00:06:25;93751.78;;;23.20;78.56
11808;BME280;5961;42.640;23.380;2023-07-31T00:08:52;93758.25;;;23.26;78.04
11808;BME280;5961;42.640;23.380;2023-07-31T00:11:20;93764.00;;;23.28;78.59
11808;BME280;5961;42.640;23.380;2023-07-31T00:13:46;93764.56;;;23.39;78.47
11808;BME280;5961;42.640;23.380;2023-07-31T00:16:13;93752.59;;;23.37;78.33
11808;BME280;5961;42.640;23.380;2023-07-31T00:18:40;93768.25;;;23.49;77.77
11808;BME280;5961;42.640;23.380;2023-07-31T00:21:06;93768.50;;;23.55;77.65
11808;BME280;5961;42.640;23.380;2023-07-31T00:23:33;93761.06;;;23.59;77.81
11808;BME280;5961;42.640;23.380;2023-07-31T00:26:00;93759.31;;;23.68;77.88
11808;BME280;5961;42.640;23.380;2023-07-31T00:28:28;93759.13;;;23.75;77.28
11808;BME280;5961;42.640;23.380;2023-07-31T00:30:55;93753.38;;;23.73;79.72
11808;BME280;5961;42.640;23.380;2023-07-31T00:33:21;93756.25;;;23.82;80.12
11808;BME280;5961;42.640;23.380;2023-07-31T00:35:48;93750.84;;;23.82;80.68
11808;BME280;5961;42.640;23.380;2023-07-31T00:38:15;93722.09;;;23.69;81.32
11808;BME280;5961;42.640;23.380;2023-07-31T00:40:42;93746.31;;;23.76;81.94
11808;BME280;5961;42.640;23.380;2023-07-31T00:43:08;93740.41;;;23.81;80.92
11808;BME280;5961;42.640;23.380;2023-07-31T00:45:36;93738.13;;;23.79;79.44
11808;BME280;5961;42.640;23.380;2023-07-31T00:48:04;93727.25;;;23.79;79.23
11808;BME280;5961;42.640;23.380;2023-07-31T00:50:33;93697.13;;;23.58;79.85
11808;BME280;5961;42.640;23.380;2023-07-31T00:52:59;93733.38;;;23.83;79.04
11808;BME280;5961;42.640;23.380;2023-07-31T00:55:26;93717.75;;;23.71;79.28
11808;BME280;5961;42.640;23.380;2023-07-31T00:57:53;93719.28;;;23.72;79.32
11808;BME280;5961;42.640;23.380;2023-07-31T01:00:21;93733.13;;;23.78;80.10
11808;BME280;5961;42.640;23.380;2023-07-31T01:02:49;93739.81;;;23.73;80.60
11808;BME280;5961;42.640;23.380;2023-07-31T01:05:18;93726.69;;;23.72;81.13
11808;BME280;5961;42.640;23.380;2023-07-31T01:07:53;93730.06;;;23.60;82.08
11808;BME280;5961;42.640;23.380;2023-07-31T01:10:26;93723.09;;;23.59;82.33
11808;BME280;5961;42.640;23.380;2023-07-31T01:12:53;93721.03;;;23.46;82.94
11808;BME280;5961;42.640;23.380;2023-07-31T01:15:20;93723.75;;;23.46;82.79
11808;BME280;5961;42.640;23.380;2023-07-31T01:17:48;93724.25;;;23.41;83.86
11808;BME280;5961;42.640;23.380;2023-07-31T01:20:20;93719.91;;;23.24;84.49
11808;BME280;5961;42.640;23.380;2023-07-31T01:23:28;93715.34;;;23.21;85.09
11808;BME280;5961;42.640;23.380;2023-07-31T01:26:11;93717.00;;;23.15;85.69
11808;BME280;5961;42.640;23.380;2023-07-31T01:28:47;93713.97;;;23.13;85.83
11808;BME280;5961;42.640;23.380;2023-07-31T01:31:20;93712.16;;;23.07;86.74
11808;BME280;5961;42.640;23.380;2023-07-31T01:33:49;93697.50;;;23.04;87.04
11808;BME280;5961;42.640;23.380;2023-07-31T01:36:17;93719.69;;;22.99;87.52
11808;BME280;5961;42.640;23.380;2023-07-31T01:38:43;93703.69;;;22.85;88.56
11808;BME280;5961;42.640;23.380;2023-07-31T01:41:12;93716.69;;;22.74;89.28
11808;BME280;5961;42.640;23.380;2023-07-31T01:43:39;93697.84;;;22.67;90.12
11808;BME280;5961;42.640;23.380;2023-07-31T01:46:05;93700.81;;;22.53;91.21
11808;BME280;5961;42.640;23.380;2023-07-31T01:48:32;93693.41;;;22.57;91.08
11808;BME280;5961;42.640;23.380;2023-07-31T01:51:01;93701.97;;;22.52;92.02
11808;BME280;5961;42.640;23.380;2023-07-31T01:53:28;93706.72;;;22.48;92.61
11808;BME280;5961;42.640;23.380;2023-07-31T01:55:55;93707.56;;;22.45;93.06
11808;BME280;5961;42.640;23.380;2023-07-31T01:58:23;93719.66;;;22.36;93.79
11808;BME280;5961;42.640;23.380;2023-07-31T02:00:49;93734.13;;;22.30;94.35
11808;BME280;5961;42.640;23.380;2023-07-31T02:03:16;93733.94;;;22.17;95.45
11808;BME280;5961;42.640;23.380;2023-07-31T02:05:46;93709.53;;;22.21;95.12
11808;BME280;5961;42.640;23.380;2023-07-31T02:08:14;93737.34;;;22.21;95.47
11808;BME280;5961;42.640;23.380;2023-07-31T02:10:41;93728.28;;;22.08;96.79
11808;BME280;5961;42.640;23.380;2023-07-31T02:13:08;93704.03;;;22.01;96.48
11808;BME280;5961;42.640;23.380;2023-07-31T02:15:36;93711.81;;;21.99;96.63
11808;BME280;5961;42.640;23.380;2023-07-31T02:18:03;93727.88;;;22.10;96.68
11808;BME280;5961;42.640;23.380;2023-07-31T02:20:29;93734.16;;;22.03;97.40
11808;BME280;5961;42.640;23.380;2023-07-31T02:22:56;93731.16;;;21.98;97.94
11808;BME280;5961;42.640;23.380;2023-07-31T02:25:23;93727.69;;;21.97;98.11
11808;BME280;5961;42.640;23.380;2023-07-31T02:27:49;93729.06;;;21.82;99.23
11808;BME280;5961;42.640;23.380;2023-07-31T02:30:16;93740.16;;;21.91;98.85
11808;BME280;5961;42.640;23.380;2023-07-31T02:32:44;93731.69;;;21.89;99.45
11808;BME280;5961;42.640;23.380;2023-07-31T02:35:11;93725.41;;;21.96;98.62
11808;BME280;5961;42.640;23.380;2023-07-31T02:37:40;93729.13;;;22.05;98.23
11808;BME280;5961;42.640;23.380;2023-07-31T02:40:08;93725.22;;;22.06;98.21
11808;BME280;5961;42.640;23.380;2023-07-31T02:42:34;93720.03;;;21.92;98.13
11808;BME280;5961;42.640;23.380;2023-07-31T02:45:01;93734.34;;;22.16;97.55
11808;BME280;5961;42.640;23.380;2023-07-31T02:47:28;93721.09;;;22.21;96.97
11808;BME280;5961;42.640;23.380;2023-07-31T02:49:56;93731.88;;;22.25;96.86
11808;BME280;5961;42.640;23.380;2023-07-31T02:52:22;93741.09;;;22.27;96.79
11808;BME280;5961;42.640;23.380;2023-07-31T02:54:49;93732.97;;;22.27;96.42
11808;BME280;5961;42.640;23.380;2023-07-31T02:57:16;93732.47;;;22.36;95.94
11808;BME280;5961;42.640;23.380;2023-07-31T02:59:42;93739.69;;;22.42;95.72
11808;BME280;5961;42.640;23.380;2023-07-31T03:02:09;93739.56;;;22.50;95.27
11808;BME280;5961;42.640;23.380;2023-07-31T03:04:36;93740.72;;;22.49;94.52
11808;BME280;5961;42.640;23.380;2023-07-31T03:07:05;93747.28;;;22.51;94.58
11808;BME280;5961;42.640;23.380;2023-07-31T03:09:32;93729.34;;;22.37;94.12
11808;BME280;5961;42.640;23.380;2023-07-31T03:11:58;93736.50;;;22.48;94.10
11808;BME280;5961;42.640;23.380;2023-07-31T03:14:25;93752.38;;;22.46;94.33
11808;BME280;5961;42.640;23.380;2023-07-31T03:16:53;93738.50;;;22.43;94.33
11808;BME280;5961;42.640;23.380;2023-07-31T03:19:20;93773.81;;;22.36;94.99
11808;BME280;5961;42.640;23.380;2023-07-31T03:21:46;93739.59;;;22.26;95.39
11808;BME280;5961;42.640;23.380;2023-07-31T03:24:15;93759.00;;;22.21;96.36
11808;BME280;5961;42.640;23.380;2023-07-31T03:26:41;93753.53;;;22.25;95.99
11808;BME280;5961;42.640;23.380;2023-07-31T03:29:08;93757.47;;;22.20;96.53
11808;BME280;5961;42.640;23.380;2023-07-31T03:31:35;93762.19;;;22.16;97.04
11808;BME280;5961;42.640;23.380;2023-07-31T03:34:01;93760.63;;;22.15;97.16
11808;BME280;5961;42.640;23.380;2023-07-31T03:36:28;93757.47;;;22.20;96.89
11808;BME280;5961;42.640;23.380;2023-07-31T03:38:55;93759.47;;;22.16;97.46
11808;BME280;5961;42.640;23.380;2023-07-31T03:41:23;93755.53;;;22.21;96.72
11808;BME280;5961;42.640;23.380;2023-07-31T03:43:51;93768.66;;;22.22;96.47
11808;BME280;5961;42.640;23.380;2023-07-31T03:46:18;93727.63;;;22.01;96.10
11808;BME280;5961;42.640;23.380;2023-07-31T03:48:44;93765.00;;;22.32;96.15
11808;BME280;5961;42.640;23.380;2023-07-31T03:51:11;93725.31;;;22.03;95.69
11808;BME280;5961;42.640;23.380;2023-07-31T03:53:38;93779.22;;;22.36;94.88
11808;BME280;5961;42.640;23.380;2023-07-31T03:56:05;93768.06;;;22.34;94.91
11808;BME280;5961;42.640;23.380;2023-07-31T03:58:33;93781.13;;;22.39;94.50
11808;BME280;5961;42.640;23.380;2023-07-31T04:01:00;93792.31;;;22.41;93.99
11808;BME280;5961;42.640;23.380;2023-07-31T04:03:28;93774.66;;;22.10;94.21
11808;BME280;5961;42.640;23.380;2023-07-31T04:05:55;93782.44;;;22.31;94.64
11808;BME280;5961;42.640;23.380;2023-07-31T04:08:22;93788.31;;;22.26;94.64
11808;BME280;5961;42.640;23.380;2023-07-31T04:10:49;93773.94;;;22.06;94.55
11808;BME280;5961;42.640;23.380;2023-07-31T04:13:16;93784.66;;;22.13;95.07
11808;BME280;5961;42.640;23.380;2023-07-31T04:15:48;93793.63;;;22.07;95.86
11808;BME280;5961;42.640;23.380;2023-07-31T04:18:15;93801.22;;;21.92;96.81
11808;BME280;5961;42.640;23.380;2023-07-31T04:20:41;93788.28;;;22.03;96.29
11808;BME280;5961;42.640;23.380;2023-07-31T04:23:08;93776.38;;;21.97;96.27
11808;BME280;5961;42.640;23.380;2023-07-31T04:25:35;93780.97;;;22.00;96.54
11808;BME280;5961;42.640;23.380;2023-07-31T04:28:01;93772.72;;;21.84;96.32
11808;BME280;5961;42.640;23.380;2023-07-31T04:30:28;93844.75;;;22.01;96.31
11808;BME280;5961;42.640;23.380;2023-07-31T04:32:56;93778.44;;;21.90;95.74
11808;BME280;5961;42.640;23.380;2023-07-31T04:35:23;93798.22;;;22.10;95.42
11808;BME280;5961;42.640;23.380;2023-07-31T04:37:50;93809.34;;;22.15;94.81
11808;BME280;5961;42.640;23.380;2023-07-31T04:40:16;93796.97;;;22.18;94.91
11808;BME280;5961;42.640;23.380;2023-07-31T04:42:43;93779.34;;;22.06;94.31
11808;BME280;5961;42.640;23.380;2023-07-31T04:45:10;93814.72;;;22.19;93.69
11808;BME280;5961;42.640;23.380;2023-07-31T04:47:36;93807.38;;;22.19;93.85
11808;BME280;5961;42.640;23.380;2023-07-31T04:50:05;93820.94;;;22.16;93.00
11808;BME280;5961;42.640;23.380;2023-07-31T04:52:32;93797.72;;;22.18;93.03
11808;BME280;5961;42.640;23.380;2023-07-31T04:54:59;93797.84;;;22.11;93.43
11808;BME280;5961;42.640;23.380;2023-07-31T04:57:26;93806.31;;;22.13;93.06
11808;BME280;5961;42.640;23.380;2023-07-31T04:59:52;93816.41;;;22.09;93.22
11808;BME280;5961;42.640;23.380;2023-07-31T05:02:19;93798.66;;;22.08;93.26
11808;BME280;5961;42.640;23.380;2023-07-31T05:04:46;93791.59;;;22.14;92.69
11808;BME280;5961;42.640;23.380;2023-07-31T05:07:14;93789.25;;;22.16;92.97
11808;BME280;5961;42.640;23.380;2023-07-31T05:09:42;93785.38;;;22.17;92.38
11808;BME280;5961;42.640;23.380;2023-07-31T05:12:08;93781.38;;;22.25;92.63
11808;BME280;5961;42.640;23.380;2023-07-31T05:14:35;93782.03;;;22.33;91.67
11808;BME280;5961;42.640;23.380;2023-07-31T05:17:02;93793.50;;;22.40;91.82
11808;BME280;5961;42.640;23.380;2023-07-31T05:19:29;93809.84;;;22.33;91.67
11808;BME280;5961;42.640;23.380;2023-07-31T05:21:55;93800.78;;;22.43;91.47
11808;BME280;5961;42.640;23.380;2023-07-31T05:24:23;93818.63;;;22.41;90.68
11808;BME280;5961;42.640;23.380;2023-07-31T05:26:50;93791.50;;;22.45;90.73
11808;BME280;5961;42.640;23.380;2023-07-31T05:29:17;93789.63;;;22.41;90.81
11808;BME280;5961;42.640;23.380;2023-07-31T05:31:43;93780.28;;;22.42;90.74
11808;BME280;5961;42.640;23.380;2023-07-31T05:34:10;93789.63;;;22.41;89.86
11808;BME280;5961;42.640;23.380;2023-07-31T05:36:37;93795.38;;;22.43;90.26
11808;BME280;5961;42.640;23.380;2023-07-31T05:39:03;93783.94;;;22.56;89.59
11808;BME280;5961;42.640;23.380;2023-07-31T05:41:35;93787.13;;;22.51;89.85
11808;BME280;5961;42.640;23.380;2023-07-31T05:44:02;93784.28;;;22.58;89.00
11808;BME280;5961;42.640;23.380;2023-07-31T05:46:29;93789.25;;;22.63;88.96
11808;BME280;5961;42.640;23.380;2023-07-31T05:48:56;93802.03;;;22.62;88.51
11808;BME280;5961;42.640;23.380;2023-07-31T05:51:25;93795.13;;;22.58;87.99
11808;BME280;5961;42.640;23.380;2023-07-31T05:53:51;93792.66;;;22.67;87.48
11808;BME280;5961;42.640;23.380;2023-07-31T05:56:18;93794.63;;;22.66;86.18
11808;BME280;5961;42.640;23.380;2023-07-31T05:58:46;93797.34;;;22.66;85.75
11808;BME280;5961;42.640;23.380;2023-07-31T06:01:15;93823.25;;;22.64;84.64
11808;BME280;5961;42.640;23.380;2023-07-31T06:03:42;93797.19;;;22.50;83.55
11808;BME280;5961;42.640;23.380;2023-07-31T06:06:09;93815.75;;;22.75;83.47
11808;BME280;5961;42.640;23.380;2023-07-31T06:08:35;93829.16;;;22.82;83.44
11808;BME280;5961;42.640;23.380;2023-07-31T06:11:02;93818.31;;;22.82;82.25
11808;BME280;5961;42.640;23.380;2023-07-31T06:13:29;93813.50;;;22.70;81.16
11808;BME280;5961;42.640;23.380;2023-07-31T06:15:57;93801.72;;;22.80;80.02
11808;BME280;5961;42.640;23.380;2023-07-31T06:18:24;93826.13;;;22.80;80.20
11808;BME280;5961;42.640;23.380;2023-07-31T06:20:51;93809.84;;;22.80;80.35
11808;BME280;5961;42.640;23.380;2023-07-31T06:23:19;93796.13;;;22.90;79.49
11808;BME280;5961;42.640;23.380;2023-07-31T06:25:46;93797.84;;;23.01;79.07
11808;BME280;5961;42.640;23.380;2023-07-31T06:28:12;93794.69;;;23.06;78.35
11808;BME280;5961;42.640;23.380;2023-07-31T06:30:39;93800.22;;;23.18;77.09
11808;BME280;5961;42.640;23.380;2023-07-31T06:33:07;93795.78;;;23.28;76.92
11808;BME280;5961;42.640;23.380;2023-07-31T06:35:34;93791.31;;;23.37;75.32
11808;BME280;5961;42.640;23.380;2023-07-31T06:38:01;93786.13;;;23.46;74.63
11808;BME280;5961;42.640;23.380;2023-07-31T06:40:28;93787.16;;;23.53;74.74
11808;BME280;5961;42.640;23.380;2023-07-31T06:42:54;93796.25;;;23.62;74.49
11808;BME280;5961;42.640;23.380;2023-07-31T06:45:21;93785.66;;;23.68;74.58
11808;BME280;5961;42.640;23.380;2023-07-31T06:47:48;93761.50;;;23.37;73.68
11808;BME280;5961;42.640;23.380;2023-07-31T06:50:16;93827.00;;;23.56;73.72
11808;BME280;5961;42.640;23.380;2023-07-31T06:52:43;93800.09;;;23.45;74.20
11808;BME280;5961;42.640;23.380;2023-07-31T06:55:17;93803.25;;;23.43;74.66
11808;BME280;5961;42.640;23.380;2023-07-31T06:57:44;93794.81;;;23.38;76.11
11808;BME280;5961;42.640;23.380;2023-07-31T07:00:12;93795.56;;;23.38;75.34
11808;BME280;5961;42.640;23.380;2023-07-31T07:02:38;93828.88;;;23.39;75.81
11808;BME280;5961;42.640;23.380;2023-07-31T07:05:06;93815.72;;;23.37;76.08
11808;BME280;5961;42.640;23.380;2023-07-31T07:07:35;93806.47;;;23.35;76.11
11808;BME280;5961;42.640;23.380;2023-07-31T07:10:03;93781.72;;;23.33;76.32
11808;BME280;5961;42.640;23.380;2023-07-31T07:12:31;93800.03;;;23.29;75.67
11808;BME280;5961;42.640;23.380;2023-07-31T07:14:58;93830.63;;;23.29;74.88
11808;BME280;5961;42.640;23.380;2023-07-31T07:17:26;93791.34;;;23.18;73.89
11808;BME280;5961;42.640;23.380;2023-07-31T07:19:53;93800.03;;;23.29;74.21
11808;BME280;5961;42.640;23.380;2023-07-31T07:22:21;93800.09;;;23.25;74.26
11808;BME280;5961;42.640;23.380;2023-07-31T07:24:49;93814.56;;;23.38;74.35
11808;BME280;5961;42.640;23.380;2023-07-31T07:27:16;93804.88;;;23.37;74.17
11808;BME280;5961;42.640;23.380;2023-07-31T07:29:42;93794.88;;;23.34;73.79
11808;BME280;5961;42.640;23.380;2023-07-31T07:32:09;93795.22;;;23.36;73.50
11808;BME280;5961;42.640;23.380;2023-07-31T07:34:39;93795.56;;;22.99;72.05
11808;BME280;5961;42.640;23.380;2023-07-31T07:37:06;93808.84;;;23.33;71.56
11808;BME280;5961;42.640;23.380;2023-07-31T07:39:33;93823.09;;;23.37;72.41
11808;BME280;5961;42.640;23.380;2023-07-31T07:42:01;93858.41;;;23.33;72.40
11808;BME280;5961;42.640;23.380;2023-07-31T07:44:28;93822.28;;;23.20;73.24
11808;BME280;5961;42.640;23.380;2023-07-31T07:46:55;93833.13;;;23.20;73.59
11808;BME280;5961;42.640;23.380;2023-07-31T07:49:22;93827.63;;;23.24;73.33
11808;BME280;5961;42.640;23.380;2023-07-31T07:51:49;93767.63;;;23.02;73.34
11808;BME280;5961;42.640;23.380;2023-07-31T07:54:16;93830.63;;;23.29;73.38
11808;BME280;5961;42.640;23.380;2023-07-31T07:56:43;93826.25;;;23.35;72.62
11808;BME280;5961;42.640;23.380;2023-07-31T07:59:11;93826.16;;;23.39;71.12
11808;BME280;5961;42.640;23.380;2023-07-31T08:01:37;93818.81;;;23.39;71.64
11808;BME280;5961;42.640;23.380;2023-07-31T08:17:26;93829.72;;;24.43;66.50
11808;BME280;5961;42.640;23.380;2023-07-31T08:19:53;93847.78;;;24.34;65.41
11808;BME280;5961;42.640;23.380;2023-07-31T08:22:21;93828.88;;;24.30;66.53
11808;BME280;5961;42.640;23.380;2023-07-31T08:24:48;93815.47;;;24.23;67.06
11808;BME280;5961;42.640;23.380;2023-07-31T08:48:31;93829.25;;;24.93;61.10
11808;BME280;5961;42.640;23.380;2023-07-31T08:50:58;93796.69;;;24.61;61.40
11808;BME280;5961;42.640;23.380;2023-07-31T08:53:25;93821.63;;;24.72;62.65
11808;BME280;5961;42.640;23.380;2023-07-31T08:55:53;93819.75;;;24.69;62.22
11808;BME280;5961;42.640;23.380;2023-07-31T08:58:20;93817.47;;;24.68;62.27
11808;BME280;5961;42.640;23.380;2023-07-31T09:00:47;93814.44;;;24.66;61.70
11808;BME280;5961;42.640;23.380;2023-07-31T09:03:16;93823.50;;;24.75;62.30
11808;BME280;5961;42.640;23.380;2023-07-31T09:05:46;93819.88;;;24.82;62.19
11808;BME280;5961;42.640;23.380;2023-07-31T09:08:14;93777.41;;;24.55;61.88
11808;BME280;5961;42.640;23.380;2023-07-31T09:10:42;93820.09;;;24.87;62.46
11808;BME280;5961;42.640;23.380;2023-07-31T09:13:11;93827.16;;;24.85;61.03
11808;BME280;5961;42.640;23.380;2023-07-31T09:15:39;93842.09;;;24.77;60.88
11808;BME280;5961;42.640;23.380;2023-07-31T09:18:07;93803.56;;;24.66;61.56
11808;BME280;5961;42.640;23.380;2023-07-31T09:20:34;93788.84;;;24.63;60.27
11808;BME280;5961;42.640;23.380;2023-07-31T09:23:09;93828.19;;;24.75;60.73
11808;BME280;5961;42.640;23.380;2023-07-31T09:25:37;93819.59;;;24.76;60.38
11808;BME280;5961;42.640;23.380;2023-07-31T09:28:06;93808.31;;;24.78;60.42
11808;BME280;5961;42.640;23.380;2023-07-31T09:30:45;93813.56;;;24.85;58.84
11808;BME280;5961;42.640;23.380;2023-07-31T09:33:12;93809.50;;;24.93;59.38
11808;BME280;5961;42.640;23.380;2023-07-31T09:35:38;93808.97;;;24.98;58.30
11808;BME280;5961;42.640;23.380;2023-07-31T09:38:10;93807.25;;;25.04;58.43
11808;BME280;5961;42.640;23.380;2023-07-31T09:40:38;93773.28;;;24.96;58.29
11808;BME280;5961;42.640;23.380;2023-07-31T09:43:07;93800.13;;;25.23;59.05
11808;BME280;5961;42.640;23.380;2023-07-31T09:45:37;93795.03;;;25.25;58.64
11808;BME280;5961;42.640;23.380;2023-07-31T09:48:07;93808.47;;;25.16;59.36
11808;BME280;5961;42.640;23.380;2023-07-31T09:50:36;93804.59;;;25.17;59.98
11808;BME280;5961;42.640;23.380;2023-07-31T09:53:03;93776.56;;;25.03;59.91
11808;BME280;5961;42.640;23.380;2023-07-31T09:55:32;93794.69;;;25.23;59.06
11808;BME280;5961;42.640;23.380;2023-07-31T09:57:59;93794.22;;;25.11;59.99
11808;BME280;5961;42.640;23.380;2023-07-31T10:00:30;93798.59;;;25.22;59.24
11808;BME280;5961;42.640;23.380;2023-07-31T10:02:58;93744.13;;;24.68;59.05
11808;BME280;5961;42.640;23.380;2023-07-31T10:05:30;93789.91;;;25.27;58.51
11808;BME280;5961;42.640;23.380;2023-07-31T10:07:57;93779.94;;;25.36;58.21
11808;BME280;5961;42.640;23.380;2023-07-31T10:10:25;93774.72;;;25.42;57.58
11808;BME280;5961;42.640;23.380;2023-07-31T10:12:54;93742.94;;;25.26;56.10
11808;BME280;5961;42.640;23.380;2023-07-31T10:15:22;93788.59;;;25.60;56.88
11808;BME280;5961;42.640;23.380;2023-07-31T10:17:50;93799.59;;;25.56;57.43
11808;BME280;5961;42.640;23.380;2023-07-31T10:20:17;93777.09;;;25.69;55.90
11808;BME280;5961;42.640;23.380;2023-07-31T10:22:44;93784.94;;;25.79;56.75
11808;BME280;5961;42.640;23.380;2023-07-31T10:25:12;93789.81;;;25.84;56.01
11808;BME280;5961;42.640;23.380;2023-07-31T10:27:39;93801.06;;;25.86;54.66
11808;BME280;5961;42.640;23.380;2023-07-31T10:30:11;93791.88;;;25.93;54.00
11808;BME280;5961;42.640;23.380;2023-07-31T10:32:40;93789.81;;;25.97;53.63
11808;BME280;5961;42.640;23.380;2023-07-31T10:35:08;93781.88;;;26.02;53.71
11808;BME280;5961;42.640;23.380;2023-07-31T10:37:39;93777.75;;;25.98;52.67
11808;BME280;5961;42.640;23.380;2023-07-31T10:40:10;93785.03;;;26.01;52.26
11808;BME280;5961;42.640;23.380;2023-07-31T10:42:45;93743.44;;;25.88;51.67
11808;BME280;5961;42.640;23.380;2023-07-31T10:45:23;93783.19;;;26.10;51.72
11808;BME280;5961;42.640;23.380;2023-07-31T10:47:58;93778.31;;;26.18;52.22
11808;BME280;5961;42.640;23.380;2023-07-31T10:50:26;93764.13;;;26.23;52.80
11808;BME280;5961;42.640;23.380;2023-07-31T10:52:54;93775.88;;;26.33;52.70
11808;BME280;5961;42.640;23.380;2023-07-31T10:55:29;93765.53;;;26.40;49.71
11808;BME280;5961;42.640;23.380;2023-07-31T10:57:57;93750.38;;;26.39;49.92
11808;BME280;5961;42.640;23.380;2023-07-31T11:00:27;93765.72;;;26.58;49.69
11808;BME280;5961;42.640;23.380;2023-07-31T11:03:03;93751.31;;;26.58;48.28
11808;BME280;5961;42.640;23.380;2023-07-31T11:05:51;93758.69;;;26.70;47.56
11808;BME280;5961;42.640;23.380;2023-07-31T11:08:20;93734.84;;;26.61;48.92
11808;BME280;5961;42.640;23.380;2023-07-31T11:10:50;93755.38;;;26.75;48.97
11808;BME280;5961;42.640;23.380;2023-07-31T11:13:17;93748.97;;;26.82;48.67
11808;BME280;5961;42.640;23.380;2023-07-31T11:15:45;93753.66;;;26.81;48.29
11808;BME280;5961;42.640;23.380;2023-07-31T11:18:12;93757.22;;;26.78;48.00
11808;BME280;5961;42.640;23.380;2023-07-31T11:20:38;93759.56;;;26.80;48.15
11808;BME280;5961;42.640;23.380;2023-07-31T11:23:07;93741.09;;;26.84;47.21
11808;BME280;5961;42.640;23.380;2023-07-31T11:25:35;93745.66;;;26.87;48.50
11808;BME280;5961;42.640;23.380;2023-07-31T11:28:04;93749.94;;;26.88;46.98
11808;BME280;5961;42.640;23.380;2023-07-31T11:30:30;93756.22;;;26.97;46.80
11808;BME280;5961;42.640;23.380;2023-07-31T11:33:00;93753.09;;;27.08;45.96
11808;BME280;5961;42.640;23.380;2023-07-31T11:35:28;93751.66;;;27.16;44.91
11808;BME280;5961;42.640;23.380;2023-07-31T11:37:55;93748.94;;;27.16;45.54
11808;BME280;5961;42.640;23.380;2023-07-31T11:40:22;93749.25;;;27.18;46.16
11808;BME280;5961;42.640;23.380;2023-07-31T11:42:54;93739.84;;;27.19;45.64
11808;BME280;5961;42.640;23.380;2023-07-31T11:45:21;93735.41;;;27.12;45.10
11808;BME280;5961;42.640;23.380;2023-07-31T11:47:47;93729.44;;;27.05;45.39
11808;BME280;5961;42.640;23.380;2023-07-31T11:50:15;93741.00;;;27.09;44.20
11808;BME280;5961;42.640;23.380;2023-07-31T11:52:44;93730.97;;;27.06;45.67
11808;BME280;5961;42.640;23.380;2023-07-31T11:55:12;93740.34;;;27.05;45.44
11808;BME280;5961;42.640;23.380;2023-07-31T11:57:41;93725.91;;;26.95;47.42
11808;BME280;5961;42.640;23.380;2023-07-31T12:00:10;93735.47;;;27.00;47.10
11808;BME280;5961;42.640;23.380;2023-07-31T12:02:38;93737.63;;;27.26;46.44
11808;BME280;5961;42.640;23.380;2023-07-31T12:05:06;93731.97;;;27.21;45.66
11808;BME280;5961;42.640;23.380;2023-07-31T12:07:48;93685.28;;;27.19;45.20
11808;BME280;5961;42.640;23.380;2023-07-31T12:10:26;93731.63;;;27.62;44.35
11808;BME280;5961;42.640;23.380;2023-07-31T12:12:58;93719.41;;;27.76;43.67
11808;BME280;5961;42.640;23.380;2023-07-31T12:15:38;93724.78;;;27.89;43.49
11808;BME280;5961;42.640;23.380;2023-07-31T12:18:06;93718.59;;;27.97;42.33
11808;BME280;5961;42.640;23.380;2023-07-31T12:20:33;93717.59;;;28.13;42.15
11808;BME280;5961;42.640;23.380;2023-07-31T12:23:02;93692.97;;;28.04;42.36
11808;BME280;5961;42.640;23.380;2023-07-31T12:25:32;93727.34;;;28.41;41.25
11808;BME280;5961;42.640;23.380;2023-07-31T12:28:05;93711.56;;;28.27;41.90
11808;BME280;5961;42.640;23.380;2023-07-31T12:30:36;93699.69;;;28.12;41.33
11808;BME280;5961;42.640;23.380;2023-07-31T12:33:03;93689.91;;;28.02;41.05
11808;BME280;5961;42.640;23.380;2023-07-31T12:35:36;93692.47;;;27.96;41.57
11808;BME280;5961;42.640;23.380;2023-07-31T12:38:04;93712.13;;;28.13;42.65
11808;BME280;5961;42.640;23.380;2023-07-31T12:40:31;93724.44;;;28.17;43.01
11808;BME280;5961;42.640;23.380;2023-07-31T12:43:00;93715.78;;;28.19;43.95
11808;BME280;5961;42.640;23.380;2023-07-31T12:45:27;93712.72;;;28.08;44.01
11808;BME280;5961;42.640;23.380;2023-07-31T12:47:53;93703.56;;;28.02;43.35
11808;BME280;5961;42.640;23.380;2023-07-31T12:50:20;93711.44;;;27.91;42.83
11808;BME280;5961;42.640;23.380;2023-07-31T12:52:47;93694.72;;;27.89;42.61
11808;BME280;5961;42.640;23.380;2023-07-31T12:55:16;93697.09;;;27.77;42.86
11808;BME280;5961;42.640;23.380;2023-07-31T12:57:43;93691.81;;;27.74;42.52
11808;BME280;5961;42.640;23.380;2023-07-31T13:00:11;93698.78;;;27.75;42.33
11808;BME280;5961;42.640;23.380;2023-07-31T13:02:39;93699.75;;;27.99;41.90
11808;BME280;5961;42.640;23.380;2023-07-31T13:05:06;93683.28;;;28.12;41.37
11808;BME280;5961;42.640;23.380;2023-07-31T13:07:33;93683.16;;;28.15;40.97
11808;BME280;5961;42.640;23.380;2023-07-31T13:09:59;93691.38;;;28.43;41.21
11808;BME280;5961;42.640;23.380;2023-07-31T13:12:27;93676.03;;;28.45;40.89
11808;BME280;5961;42.640;23.380;2023-07-31T13:14:54;93694.28;;;28.57;40.20
11808;BME280;5961;42.640;23.380;2023-07-31T13:17:21;93685.16;;;28.60;39.78
11808;BME280;5961;42.640;23.380;2023-07-31T13:19:48;93700.97;;;28.65;40.64
11808;BME280;5961;42.640;23.380;2023-07-31T13:22:14;93680.94;;;28.68;40.28
11808;BME280;5961;42.640;23.380;2023-07-31T13:24:41;93725.09;;;28.49;41.43
11808;BME280;5961;42.640;23.380;2023-07-31T13:27:08;93697.91;;;28.36;41.90
11808;BME280;5961;42.640;23.380;2023-07-31T13:29:36;93696.38;;;28.35;42.44
11808;BME280;5961;42.640;23.380;2023-07-31T13:32:03;93700.91;;;28.20;41.61
11808;BME280;5961;42.640;23.380;2023-07-31T13:34:30;93697.25;;;28.14;41.16
11808;BME280;5961;42.640;23.380;2023-07-31T13:36:57;93701.34;;;28.09;41.44
11808;BME280;5961;42.640;23.380;2023-07-31T13:39:23;93735.34;;;28.17;40.90